TUPJ/RAD METAR and TAF weather

Enter ICAO airport designator
Station Type Date Time Source
TUPJ METAR 2019/08/25 20:00 UTC NOAA

TUPJ 252000Z 13006KT 10SM FEW020 31/23 A3000 RMK Q1015 VIS+10KM


Station Type Date Time Source
TUPJ Decoded METAR 2019/08/25 20:00 UTC NOAA

Station name not available
Aug 25, 2019 - 04:00 PM EDT / 2019.08.25 2000 UTC
Wind: from the SE (130 degrees) at 7 MPH (6 KT):0
Visibility: 10 mile(s):0
Sky conditions: mostly clear
Temperature: 87 F (31 C)
Heat index: 93.9 F (34.4 C):1
Dew Point: 73 F (23 C)
Relative Humidity: 62%
Pressure (altimeter): 30 in. Hg (1015 hPa)
ob: TUPJ 252000Z 13006KT 10SM FEW020 31/23 A3000 RMK Q1015 VIS+10KM
cycle: 20

Station Type Date Time Source
TUPJ TAF 2019/08/25 18:03 UTC NOAA

TAF TUPJ 251800Z 2518/2618 11010KT 9999 SCT020

Example: see airport list